createdAt,value
2023-04-16T00:05:12.082Z,4.28
2023-04-16T00:11:16.032Z,4.05
2023-04-16T00:17:21.123Z,4.53
2023-04-16T00:23:25.299Z,4.00
2023-04-16T00:29:31.172Z,5.03
2023-04-16T00:35:36.125Z,4.72
2023-04-16T00:41:40.014Z,5.35
2023-04-16T00:47:43.438Z,6.55
2023-04-16T00:53:48.357Z,6.68
2023-04-16T00:59:52.039Z,6.13
2023-04-16T01:05:55.736Z,5.22
2023-04-16T01:12:00.666Z,4.70
2023-04-16T01:18:04.160Z,5.05
2023-04-16T01:24:09.242Z,4.80
2023-04-16T01:30:13.288Z,5.30
2023-04-16T01:36:16.942Z,5.07
2023-04-16T01:42:21.975Z,5.25
2023-04-16T01:48:25.591Z,5.07
2023-04-16T01:54:29.005Z,4.93
2023-04-16T02:00:33.852Z,4.72
2023-04-16T02:06:37.314Z,5.25
2023-04-16T02:12:41.009Z,5.18
2023-04-16T02:18:45.980Z,5.20
2023-04-16T02:24:50.920Z,5.80
2023-04-16T02:30:54.442Z,5.78
2023-04-16T02:36:59.462Z,5.95
2023-04-16T02:43:03.066Z,6.38
2023-04-16T02:49:06.458Z,5.90
2023-04-16T02:55:12.434Z,5.65
2023-04-16T03:01:15.867Z,5.50
2023-04-16T03:07:19.425Z,4.55
2023-04-16T03:13:24.144Z,4.68
2023-04-16T03:19:28.866Z,5.55
2023-04-16T03:25:32.286Z,5.80
2023-04-16T03:31:37.082Z,5.28
2023-04-16T03:37:40.568Z,5.68
2023-04-16T03:43:43.973Z,5.72
2023-04-16T03:49:48.930Z,5.00
2023-04-16T03:55:52.835Z,4.68
2023-04-16T04:01:56.453Z,5.03
2023-04-16T04:08:01.420Z,4.60
2023-04-16T04:14:05.428Z,4.35
2023-04-16T04:20:09.314Z,4.00
2023-04-16T04:26:14.216Z,3.67
2023-04-16T04:32:17.869Z,3.70
2023-04-16T04:38:22.340Z,4.10
2023-04-16T04:44:27.135Z,3.70
2023-04-16T04:50:30.773Z,3.75
2023-04-16T04:56:34.376Z,3.95
2023-04-16T05:02:39.339Z,3.88
2023-04-16T05:08:43.010Z,3.42
2023-04-16T05:14:46.434Z,3.08
2023-04-16T05:20:51.296Z,2.97
2023-04-16T05:26:54.916Z,2.90
2023-04-16T05:32:58.376Z,2.85
2023-04-16T05:39:03.156Z,3.13
2023-04-16T05:45:07.306Z,3.35
2023-04-16T05:51:11.077Z,3.30
2023-04-16T05:57:16.592Z,3.30
2023-04-16T06:03:20.187Z,3.50
2023-04-16T06:09:23.646Z,3.92
2023-04-16T06:15:28.427Z,3.63
2023-04-16T06:21:32.240Z,4.30
2023-04-16T06:27:35.747Z,3.42
2023-04-16T06:33:40.696Z,3.10
2023-04-16T06:39:44.111Z,2.47
2023-04-16T06:45:47.511Z,2.42
2023-04-16T06:51:54.246Z,1.83
2023-04-16T06:57:57.636Z,2.30
2023-04-16T07:04:01.180Z,1.70
2023-04-16T07:10:06.915Z,1.35
2023-04-16T07:16:10.452Z,1.42
2023-04-16T07:22:13.917Z,1.55
2023-04-16T07:28:18.685Z,1.60
2023-04-16T07:34:22.075Z,1.30
2023-04-16T07:40:26.315Z,1.05
2023-04-16T07:46:45.570Z,1.40
2023-04-16T07:52:50.259Z,1.30
2023-04-16T07:58:53.719Z,1.27
2023-04-16T08:04:58.601Z,0.98
2023-04-16T08:11:02.520Z,1.23
2023-04-16T08:17:06.227Z,1.00
2023-04-16T08:23:11.039Z,1.30
2023-04-16T08:29:14.685Z,1.20
2023-04-16T08:35:18.266Z,1.10
2023-04-16T08:41:24.178Z,1.35
2023-04-16T08:47:28.451Z,1.35
2023-04-16T08:53:37.923Z,1.40
2023-04-16T08:59:47.195Z,1.77
2023-04-16T09:05:51.609Z,1.50
2023-04-16T09:11:55.850Z,1.40
2023-04-16T09:18:00.711Z,1.50
2023-04-16T09:24:04.176Z,1.70
2023-04-16T09:30:22.325Z,1.60
2023-04-16T09:36:27.869Z,1.10
2023-04-16T09:42:32.385Z,1.48
2023-04-16T09:48:36.140Z,1.20
2023-04-16T09:54:44.833Z,1.40
2023-04-16T10:00:48.328Z,1.25
2023-04-16T10:07:05.137Z,1.58
2023-04-16T10:13:09.959Z,1.52
2023-04-16T10:19:14.215Z,1.50
2023-04-16T10:25:18.636Z,1.90
2023-04-16T10:31:24.640Z,1.90
2023-04-16T10:37:34.016Z,1.90
2023-04-16T10:43:41.247Z,1.88
2023-04-16T10:49:46.097Z,1.65
2023-04-16T10:55:59.255Z,1.50
2023-04-16T11:02:03.472Z,1.30
2023-04-16T11:08:17.330Z,1.48
2023-04-16T11:14:21.040Z,1.42
2023-04-16T11:20:25.054Z,1.88
2023-04-16T11:26:30.993Z,2.10
2023-04-16T11:32:34.948Z,1.80
2023-04-16T11:38:40.975Z,2.00
2023-04-16T11:44:46.020Z,1.70
2023-04-16T11:50:56.775Z,1.80
2023-04-16T11:57:00.226Z,1.70
2023-04-16T12:03:05.769Z,1.70
2023-04-16T12:09:25.321Z,1.67
2023-04-16T12:15:44.969Z,2.03
2023-04-16T12:21:50.505Z,2.33
2023-04-16T12:27:55.694Z,1.45
2023-04-16T12:34:03.901Z,1.38
2023-04-16T12:40:09.773Z,1.70
2023-04-16T12:46:13.433Z,1.73
2023-04-16T12:52:16.899Z,1.40
2023-04-16T12:58:21.686Z,1.85
2023-04-16T13:04:25.998Z,1.40
2023-04-16T13:10:29.652Z,1.70
2023-04-16T13:16:34.426Z,1.30
2023-04-16T13:22:37.970Z,1.85
2023-04-16T13:28:41.727Z,1.48
2023-04-16T13:34:47.228Z,1.70
2023-04-16T13:40:50.607Z,2.10
2023-04-16T13:46:54.447Z,1.83
2023-04-16T13:52:59.297Z,1.98
2023-04-16T13:59:05.187Z,1.60
2023-04-16T14:05:09.305Z,2.33
2023-04-16T14:11:14.552Z,1.58
2023-04-16T14:17:18.023Z,1.10
2023-04-16T14:23:23.598Z,1.35
2023-04-16T14:29:28.499Z,1.95
2023-04-16T14:35:34.994Z,2.03
2023-04-16T14:41:38.578Z,2.03
2023-04-16T14:47:47.653Z,1.90
2023-04-16T14:53:51.532Z,2.10
2023-04-16T14:59:55.002Z,1.60
2023-04-16T15:06:00.386Z,1.25
2023-04-16T15:12:04.316Z,1.40
2023-04-16T15:18:08.022Z,1.80
2023-04-16T15:24:13.238Z,1.30
2023-04-16T15:30:17.506Z,1.70
2023-04-16T15:36:20.973Z,2.78
2023-04-16T15:42:26.014Z,2.63
2023-04-16T15:48:29.471Z,2.78
2023-04-16T15:54:32.970Z,2.55
2023-04-16T16:00:37.773Z,2.60
2023-04-16T16:06:41.921Z,2.53
2023-04-16T16:12:46.903Z,1.85
2023-04-16T16:18:51.988Z,2.60
2023-04-16T16:24:57.818Z,2.58
2023-04-16T16:31:02.097Z,2.20
2023-04-16T16:37:07.158Z,2.67
2023-04-16T16:43:10.618Z,3.78
2023-04-16T16:49:14.280Z,3.65
2023-04-16T16:55:20.266Z,3.20
2023-04-16T17:01:23.912Z,3.70
2023-04-16T17:07:27.781Z,3.60
2023-04-16T17:13:33.451Z,3.50
2023-04-16T17:19:36.851Z,3.55
2023-04-16T17:25:40.263Z,2.00
2023-04-16T17:31:47.033Z,1.95
2023-04-16T17:37:50.520Z,1.85
2023-04-16T17:43:53.893Z,2.22
2023-04-16T17:49:58.946Z,2.30
2023-04-16T17:56:02.409Z,3.38
2023-04-16T18:02:06.083Z,3.50
2023-04-16T18:08:10.930Z,3.40
2023-04-16T18:14:19.708Z,3.63
2023-04-16T18:20:23.493Z,3.70
2023-04-16T18:26:29.992Z,4.47
2023-04-16T18:32:33.807Z,4.63
2023-04-16T18:38:46.391Z,4.63
2023-04-16T18:51:02.864Z,4.70
2023-04-16T18:57:06.381Z,5.03
2023-04-16T19:03:11.261Z,4.22
2023-04-16T19:09:14.981Z,4.28
2023-04-16T19:15:18.502Z,4.30
2023-04-16T19:21:23.320Z,5.47
2023-04-16T19:27:26.754Z,5.55
2023-04-16T19:33:30.251Z,4.40
2023-04-16T19:39:35.059Z,4.00
2023-04-16T19:45:44.010Z,4.70
2023-04-16T19:51:47.471Z,4.95
2023-04-16T19:57:52.385Z,4.80
2023-04-16T20:03:55.805Z,4.80
2023-04-16T20:09:59.332Z,4.93
2023-04-16T20:16:04.111Z,5.40
2023-04-16T20:22:07.599Z,5.55
2023-04-16T20:28:11.096Z,6.55
2023-04-16T20:34:17.850Z,7.05
2023-04-16T20:40:22.575Z,7.78
2023-04-16T20:46:25.978Z,8.65
2023-04-16T20:52:30.831Z,9.32
2023-04-16T20:58:34.545Z,9.05
2023-04-16T21:04:38.022Z,9.80
2023-04-16T21:10:43.656Z,11.00
2023-04-16T21:16:47.034Z,9.95
2023-04-16T21:22:55.159Z,10.77
2023-04-16T21:28:59.864Z,11.52
2023-04-16T21:35:03.817Z,11.45
2023-04-16T21:41:09.382Z,11.88
2023-04-16T21:47:14.502Z,11.07
2023-04-16T21:53:17.906Z,11.40
2023-04-16T21:59:21.377Z,9.95
2023-04-16T22:05:26.172Z,9.00
2023-04-16T22:11:29.586Z,9.20
2023-04-16T22:17:34.018Z,9.18
2023-04-16T22:23:38.955Z,7.82
2023-04-16T22:29:42.733Z,8.02
2023-04-16T22:35:46.206Z,8.07
2023-04-16T22:41:51.615Z,9.25
2023-04-16T22:47:55.084Z,9.07
2023-04-16T22:53:58.627Z,8.70
2023-04-16T23:00:06.129Z,9.75
2023-04-16T23:06:09.673Z,9.65
2023-04-16T23:12:13.037Z,8.90
2023-04-16T23:18:17.788Z,10.10
2023-04-16T23:24:21.216Z,9.27
2023-04-16T23:30:24.640Z,9.50
2023-04-16T23:36:29.406Z,8.65
2023-04-16T23:42:32.774Z,8.38
2023-04-16T23:48:36.252Z,8.07
2023-04-16T23:54:41.013Z,8.05
